Time;durP1;ratioP1;P1;durP2;ratioP2;P2;SDS_P1;SDS_P2;PMS_P1;PMS_P2;Temp;Humidity;BMP_temperature;BMP_pressure;BME280_temperature;BME280_humidity;BME280_pressure;Samples;Min_cycle;Max_cycle;Signal;HPM_P1;HPM_P2
2021/11/22 00:00:10;;;;;;;8.93;6.20;;;3.70;99.90;;;;;;4936215;29;20198;-60
2021/11/22 00:02:38;;;;;;;16.87;5.90;;;3.70;99.90;;;;;;4937819;29;20213;-62
2021/11/22 00:05:06;;;;;;;10.80;5.47;;;3.70;99.90;;;;;;4937250;29;20238;-61
2021/11/22 00:07:32;;;;;;;15.53;6.77;;;3.70;99.60;;;;;;4937500;29;20580;-62
2021/11/22 00:10:01;;;;;;;13.10;5.60;;;3.70;93.30;;;;;;4937680;29;20208;-62
2021/11/22 00:12:29;;;;;;;14.17;6.33;;;3.60;94.20;;;;;;4937674;29;20215;-61
2021/11/22 00:14:56;;;;;;;15.10;5.90;;;3.60;98.50;;;;;;4937221;29;20282;-62
2021/11/22 00:17:23;;;;;;;11.13;5.87;;;3.60;96.00;;;;;;4937489;29;20226;-61
2021/11/22 00:19:51;;;;;;;14.60;6.10;;;3.60;94.30;;;;;;4937674;29;20213;-61
2021/11/22 00:22:17;;;;;;;12.43;6.23;;;3.60;83.20;;;;;;4937473;29;20219;-62
2021/11/22 00:24:44;;;;;;;12.83;5.90;;;3.50;72.30;;;;;;4937197;29;20240;-61
2021/11/22 00:27:11;;;;;;;9.97;5.83;;;3.50;69.70;;;;;;4937349;29;20211;-62
2021/11/22 00:29:38;;;;;;;14.83;6.00;;;3.50;71.30;;;;;;4937154;29;20206;-61
2021/11/22 00:32:05;;;;;;;12.47;6.80;;;3.50;72.60;;;;;;4937192;29;20592;-62
2021/11/22 00:34:41;;;;;;;17.77;6.43;;;3.40;74.60;;;;;;4936759;29;20236;-60
2021/11/22 00:37:13;;;;;;;15.63;5.40;;;3.40;93.50;;;;;;4937204;29;20218;-62
2021/11/22 00:39:40;;;;;;;18.30;5.80;;;3.40;99.90;;;;;;4937235;29;20242;-61
2021/11/22 00:42:07;;;;;;;8.80;5.57;;;3.40;99.90;;;;;;4937098;29;20215;-62
2021/11/22 00:44:34;;;;;;;14.20;5.87;;;3.50;99.90;;;;;;4936570;29;20226;-62
2021/11/22 00:47:00;;;;;;;13.53;5.60;;;3.50;99.90;;;;;;4936931;29;20227;-61
2021/11/22 00:49:27;;;;;;;13.67;6.07;;;3.50;99.90;;;;;;4936823;29;20673;-62
2021/11/22 00:51:54;;;;;;;13.43;6.10;;;3.50;99.90;;;;;;4936822;29;20214;-62
2021/11/22 00:54:22;;;;;;;12.47;5.90;;;3.60;99.90;;;;;;4936735;29;20235;-61
2021/11/22 00:56:49;;;;;;;15.43;7.13;;;3.60;99.90;;;;;;4936773;29;20228;-62
2021/11/22 00:59:15;;;;;;;10.63;5.70;;;3.60;99.90;;;;;;4936405;29;20608;-62
2021/11/22 01:01:45;;;;;;;12.47;7.40;;;3.70;99.90;;;;;;4936478;29;20685;-62
2021/11/22 01:04:12;;;;;;;16.90;6.73;;;3.70;99.90;;;;;;4936736;29;20228;-62
2021/11/22 01:06:39;;;;;;;15.70;7.50;;;3.80;99.90;;;;;;4936342;29;20207;-62
2021/11/22 01:09:06;;;;;;;12.63;6.73;;;3.80;99.90;;;;;;4936772;29;20206;-62
2021/11/22 01:11:34;;;;;;;18.37;9.03;;;3.80;99.90;;;;;;4935906;29;20289;-61
2021/11/22 01:14:02;;;;;;;16.37;9.20;;;3.90;99.90;;;;;;4936326;29;20243;-61
2021/11/22 01:16:30;;;;;;;18.50;8.13;;;3.80;1.00;;;;;;4936352;29;20223;-62
2021/11/22 01:18:57;;;;;;;22.87;10.80;;;3.90;1.00;;;;;;4936458;29;20237;-62
2021/11/22 01:21:24;;;;;;;21.23;10.50;;;3.90;1.00;;;;;;4936541;29;20218;-62
2021/11/22 01:23:50;;;;;;;17.57;7.97;;;4.00;1.00;;;;;;4936348;29;20217;-62
2021/11/22 01:26:17;;;;;;;23.07;12.20;;;4.00;1.00;;;;;;4935887;29;20214;-61
2021/11/22 01:28:45;;;;;;;20.40;11.63;;;4.00;1.00;;;;;;4936105;29;20215;-61
2021/11/22 01:31:12;;;;;;;21.97;11.87;;;4.00;1.00;;;;;;4935902;29;20218;-62
2021/11/22 01:33:39;;;;;;;21.93;12.53;;;4.10;1.00;;;;;;4937193;29;20213;-62
2021/11/22 01:36:06;;;;;;;22.27;11.40;;;4.10;1.00;;;;;;4936718;29;20230;-62
2021/11/22 01:38:33;;;;;;;22.60;12.17;;;4.20;1.00;;;;;;4936721;29;20226;-62
2021/11/22 01:41:01;;;;;;;19.47;11.37;;;4.20;1.00;;;;;;4936602;29;20215;-62
2021/11/22 01:43:28;;;;;;;15.30;8.60;;;4.20;1.00;;;;;;4936708;29;20242;-62
2021/11/22 01:45:57;;;;;;;21.27;11.23;;;4.20;1.00;;;;;;4936115;29;20258;-62
2021/11/22 01:48:24;;;;;;;22.93;11.27;;;4.20;1.00;;;;;;4935774;29;20232;-61
2021/11/22 01:50:52;;;;;;;21.73;11.00;;;4.30;1.00;;;;;;4935802;29;20215;-62
2021/11/22 01:53:21;;;;;;;16.50;9.90;;;4.30;1.00;;;;;;4935630;29;20211;-62
2021/11/22 01:55:48;;;;;;;20.57;11.80;;;4.30;1.00;;;;;;4935729;29;20243;-62
2021/11/22 01:58:16;;;;;;;21.00;11.00;;;4.30;1.00;;;;;;4935728;29;20223;-62
2021/11/22 02:00:46;;;;;;;14.57;9.13;;;4.30;1.00;;;;;;4935669;29;20216;-62
2021/11/22 02:03:15;;;;;;;17.07;9.77;;;4.30;1.00;;;;;;4935644;29;20215;-61
2021/11/22 02:05:43;;;;;;;16.13;9.00;;;4.30;1.00;;;;;;4935120;29;20227;-61
2021/11/22 02:08:09;;;;;;;9.63;5.57;;;4.40;1.00;;;;;;4935212;29;20220;-61
2021/11/22 02:10:37;;;;;;;20.77;11.23;;;4.40;1.00;;;;;;4935624;29;20220;-61
2021/11/22 02:13:04;;;;;;;20.97;10.73;;;4.40;1.00;;;;;;4935540;29;20205;-62
2021/11/22 02:15:32;;;;;;;17.43;10.17;;;4.40;1.00;;;;;;4934888;29;20262;-61
2021/11/22 02:17:59;;;;;;;20.80;11.20;;;4.40;1.00;;;;;;4935278;29;20207;-62
2021/11/22 02:20:29;;;;;;;15.97;8.80;;;4.40;1.00;;;;;;4935099;29;20214;-61
2021/11/22 02:22:58;;;;;;;18.90;11.27;;;4.40;1.00;;;;;;4935144;29;20227;-62
2021/11/22 02:25:27;;;;;;;20.60;10.97;;;4.40;1.00;;;;;;4934846;29;20240;-61
2021/11/22 02:27:55;;;;;;;17.47;10.90;;;4.50;1.00;;;;;;4935183;29;20215;-62
2021/11/22 02:30:29;;;;;;;22.67;12.43;;;4.50;1.00;;;;;;4934995;29;20234;-62
2021/11/22 02:32:57;;;;;;;22.13;11.43;;;4.50;1.00;;;;;;4935107;29;20269;-62
2021/11/22 02:35:23;;;;;;;23.47;12.87;;;4.50;1.00;;;;;;4934626;29;20242;-61
2021/11/22 02:37:52;;;;;;;17.80;9.57;;;4.60;1.00;;;;;;4935146;29;20219;-62
2021/11/22 02:40:18;;;;;;;18.17;10.87;;;4.60;1.00;;;;;;4935078;29;20212;-62
2021/11/22 02:42:46;;;;;;;13.03;7.63;;;4.60;1.00;;;;;;4934865;29;20212;-62
2021/11/22 02:45:16;;;;;;;16.83;9.60;;;4.60;1.00;;;;;;4934383;29;20237;-62
2021/11/22 02:47:44;;;;;;;17.97;8.73;;;4.60;99.90;;;;;;4934951;29;20613;-62
2021/11/22 02:50:12;;;;;;;21.60;11.60;;;4.70;99.90;;;;;;4934820;29;20844;-62
2021/11/22 02:52:39;;;;;;;23.30;10.73;;;4.70;99.90;;;;;;4934874;29;20564;-62
2021/11/22 02:55:09;;;;;;;18.70;10.80;;;4.70;99.90;;;;;;4934436;29;20236;-60
2021/11/22 02:57:36;;;;;;;16.70;9.50;;;4.70;99.90;;;;;;4934831;29;20680;-61
2021/11/22 03:00:05;;;;;;;19.90;11.03;;;4.80;99.90;;;;;;4934557;29;20213;-62
2021/11/22 03:02:31;;;;;;;9.83;6.27;;;4.80;99.90;;;;;;4935175;29;20245;-62
2021/11/22 03:04:58;;;;;;;12.27;6.67;;;4.80;99.90;;;;;;4934437;29;20231;-62
2021/11/22 03:07:25;;;;;;;18.40;10.13;;;4.80;99.90;;;;;;4934829;29;20215;-62
2021/11/22 03:09:51;;;;;;;17.70;10.97;;;4.80;99.90;;;;;;4934548;29;20243;-62
2021/11/22 03:12:19;;;;;;;15.53;9.50;;;4.80;99.90;;;;;;4934814;29;20547;-62
2021/11/22 03:14:47;;;;;;;17.70;10.80;;;4.80;99.90;;;;;;4934061;29;20233;-61
2021/11/22 03:17:14;;;;;;;16.50;10.73;;;4.90;99.90;;;;;;4935116;29;20219;-61
2021/11/22 03:19:40;;;;;;;13.27;7.67;;;4.90;99.90;;;;;;4935490;29;20202;-61
2021/11/22 03:22:07;;;;;;;13.17;9.13;;;4.90;99.90;;;;;;4934796;29;20578;-61
2021/11/22 03:24:34;;;;;;;10.17;4.77;;;4.90;99.90;;;;;;4934124;29;20240;-61
2021/11/22 03:27:02;;;;;;;13.07;8.10;;;4.90;99.90;;;;;;4934404;29;20208;-61
2021/11/22 03:29:30;;;;;;;14.13;8.70;;;5.00;99.90;;;;;;4934644;29;20232;-62
2021/11/22 03:31:59;;;;;;;12.50;8.53;;;5.00;99.90;;;;;;4934255;29;20710;-61
2021/11/22 03:34:27;;;;;;;14.90;9.27;;;5.00;99.90;;;;;;4935552;29;20225;-61
2021/11/22 03:36:55;;;;;;;12.97;7.60;;;5.00;99.90;;;;;;4937942;29;20213;-62
2021/11/22 03:39:24;;;;;;;12.27;8.73;;;5.00;99.90;;;;;;4937934;29;20208;-59
2021/11/22 03:41:54;;;;;;;11.57;8.13;;;5.00;90.30;;;;;;4937948;29;20216;-61
2021/11/22 03:44:21;;;;;;;13.10;9.17;;;5.00;80.70;;;;;;4938084;29;20240;-61
2021/11/22 03:46:51;;;;;;;15.93;8.77;;;5.00;58.70;;;;;;4937920;29;20220;-60
2021/11/22 03:49:18;;;;;;;14.70;8.33;;;5.00;53.30;;;;;;4937847;29;20224;-62
2021/11/22 03:51:45;;;;;;;12.80;7.53;;;5.00;45.00;;;;;;4937978;29;20623;-62
2021/11/22 03:54:12;;;;;;;14.43;9.07;;;5.00;38.90;;;;;;4937698;29;20739;-62
2021/11/22 03:56:40;;;;;;;12.73;9.07;;;5.00;33.40;;;;;;4937398;29;20213;-61
2021/11/22 03:59:07;;;;;;;12.27;8.90;;;5.00;30.90;;;;;;4938123;29;20228;-62
2021/11/22 04:01:34;;;;;;;12.20;8.20;;;5.00;28.90;;;;;;4937909;29;20212;-62
2021/11/22 04:04:03;;;;;;;11.40;8.47;;;5.10;25.40;;;;;;4937626;29;20212;-61
2021/11/22 04:06:30;;;;;;;13.20;8.73;;;5.00;20.60;;;;;;4937126;29;20687;-62
2021/11/22 04:08:57;;;;;;;11.47;8.63;;;5.00;15.10;;;;;;4937522;29;20237;-62
2021/11/22 04:11:23;;;;;;;11.13;6.87;;;5.00;12.40;;;;;;4937614;29;20224;-61
2021/11/22 04:13:51;;;;;;;7.67;5.03;;;5.10;1.40;;;;;;4937595;29;20206;-62
2021/11/22 04:16:18;;;;;;;9.97;7.17;;;5.00;1.30;;;;;;4937173;29;20212;-62
2021/11/22 04:18:45;;;;;;;12.53;8.70;;;5.00;1.50;;;;;;4937345;29;20212;-62
2021/11/22 04:21:16;;;;;;;7.93;5.43;;;5.00;1.00;;;;;;4937365;29;20216;-61
2021/11/22 04:23:43;;;;;;;10.33;7.17;;;5.00;1.00;;;;;;4937475;29;20224;-61
2021/11/22 04:26:11;;;;;;;12.40;7.67;;;5.00;1.00;;;;;;4936913;29;20609;-62
2021/11/22 04:28:38;;;;;;;10.47;7.37;;;5.00;1.00;;;;;;4937160;29;20205;-62
2021/11/22 04:31:06;;;;;;;6.97;4.50;;;5.00;1.00;;;;;;4937242;29;20587;-62
2021/11/22 04:33:32;;;;;;;12.40;6.83;;;5.00;1.00;;;;;;4937113;29;20316;-62
2021/11/22 04:36:00;;;;;;;10.37;7.97;;;5.00;1.00;;;;;;4936601;29;20252;-62
2021/11/22 04:38:28;;;;;;;11.87;8.30;;;5.00;1.00;;;;;;4937256;29;20209;-62
2021/11/22 04:40:55;;;;;;;12.63;7.63;;;4.90;1.00;;;;;;4937151;29;20215;-62
2021/11/22 04:43:21;;;;;;;9.97;6.60;;;4.90;1.00;;;;;;4936914;29;20205;-61
2021/11/22 04:45:48;;;;;;;11.50;8.70;;;4.90;1.00;;;;;;4936751;29;20633;-61
2021/11/22 04:48:15;;;;;;;11.77;7.63;;;4.90;1.00;;;;;;4937108;29;20209;-61
2021/11/22 04:50:42;;;;;;;13.97;9.43;;;4.90;1.00;;;;;;4936855;29;20236;-61
2021/11/22 04:53:09;;;;;;;11.40;7.93;;;4.80;1.00;;;;;;4937129;29;20216;-60
2021/11/22 04:55:37;;;;;;;12.60;9.20;;;4.80;1.00;;;;;;4936686;29;20231;-61
2021/11/22 04:58:04;;;;;;;17.30;11.20;;;4.80;1.00;;;;;;4936759;29;20218;-61
2021/11/22 05:00:31;;;;;;;15.87;10.80;;;4.80;1.00;;;;;;4936663;29;20214;-61
2021/11/22 05:02:57;;;;;;;14.73;8.93;;;4.80;1.00;;;;;;4936865;29;20212;-61
2021/11/22 05:05:25;;;;;;;15.50;10.40;;;4.80;1.00;;;;;;4936110;29;20237;-61
2021/11/22 05:07:51;;;;;;;14.73;9.80;;;4.70;1.00;;;;;;4936658;29;20687;-61
2021/11/22 05:10:21;;;;;;;14.07;9.63;;;4.70;1.00;;;;;;4936680;29;20255;-61
2021/11/22 05:12:49;;;;;;;13.83;9.17;;;4.70;1.00;;;;;;4936392;29;20243;-61
2021/11/22 05:15:16;;;;;;;12.90;9.73;;;4.60;1.00;;;;;;4936071;29;20232;-61
2021/11/22 05:17:43;;;;;;;13.63;9.53;;;4.60;1.00;;;;;;4936192;29;20774;-61
2021/11/22 05:20:10;;;;;;;15.63;10.20;;;4.60;1.00;;;;;;4936448;29;20217;-61
2021/11/22 05:22:37;;;;;;;14.33;10.10;;;4.60;1.00;;;;;;4936344;29;20238;-61
2021/11/22 05:25:05;;;;;;;14.23;9.87;;;4.60;1.00;;;;;;4935763;29;20726;-61
2021/11/22 05:27:32;;;;;;;15.07;9.73;;;4.60;1.00;;;;;;4936119;29;20215;-61
2021/11/22 05:30:00;;;;;;;14.37;10.37;;;4.60;1.00;;;;;;4933554;29;20235;-61
2021/11/22 05:32:27;;;;;;;16.93;11.27;;;4.60;1.00;;;;;;4935803;29;20240;-61
2021/11/22 05:34:56;;;;;;;15.00;10.87;;;4.60;1.00;;;;;;4935567;29;20229;-61
2021/11/22 05:37:23;;;;;;;15.00;10.47;;;4.50;1.00;;;;;;4936003;29;20208;-62
2021/11/22 05:39:50;;;;;;;17.60;11.53;;;4.60;1.00;;;;;;4932904;29;20237;-61
2021/11/22 05:42:17;;;;;;;17.37;11.07;;;4.60;1.00;;;;;;4935668;29;20828;-61
2021/11/22 05:44:45;;;;;;;19.20;13.00;;;4.60;1.00;;;;;;4935011;29;20239;-62
2021/11/22 05:47:14;;;;;;;20.77;13.57;;;4.50;1.00;;;;;;4951993;29;20216;-62
2021/11/22 05:49:42;;;;;;;19.43;13.17;;;4.50;1.00;;;;;;4954859;29;20225;-62
2021/11/22 05:52:10;;;;;;;9.63;6.47;;;4.50;1.00;;;;;;4954510;29;20216;-61
2021/11/22 05:54:45;;;;;;;19.30;12.60;;;4.50;1.00;;;;;;4954462;28;20687;-62
2021/11/22 05:57:12;;;;;;;17.70;11.50;;;4.40;1.00;;;;;;4946587;28;20292;-61
2021/11/22 05:59:39;;;;;;;20.37;12.53;;;4.40;1.00;;;;;;4935572;29;20217;-62
2021/11/22 06:02:06;;;;;;;26.23;12.10;;;4.40;1.00;;;;;;4935304;29;20212;-61
2021/11/22 06:04:34;;;;;;;20.07;13.17;;;4.40;1.00;;;;;;4935020;29;20235;-61
2021/11/22 06:07:01;;;;;;;19.77;13.33;;;4.40;1.00;;;;;;4935267;29;20217;-60
2021/11/22 06:09:28;;;;;;;22.93;14.37;;;4.40;1.00;;;;;;4935042;29;20299;-56
2021/11/22 06:11:54;;;;;;;19.37;13.30;;;4.30;1.00;;;;;;4934770;29;20206;-61
2021/11/22 06:14:21;;;;;;;16.07;11.70;;;4.20;1.00;;;;;;4935059;29;20231;-59
2021/11/22 06:16:48;;;;;;;17.70;12.73;;;4.20;1.00;;;;;;4934081;29;20198;-60
2021/11/22 06:19:15;;;;;;;18.47;13.47;;;4.30;1.00;;;;;;4935146;29;20206;-60
2021/11/22 06:21:43;;;;;;;18.27;11.10;;;4.30;1.00;;;;;;4934940;29;20215;-60
2021/11/22 06:24:09;;;;;;;22.50;14.97;;;4.20;1.00;;;;;;4934816;29;20232;-60
2021/11/22 06:26:37;;;;;;;20.87;14.17;;;4.20;1.00;;;;;;4929287;29;20213;-62
2021/11/22 06:29:04;;;;;;;17.23;12.80;;;4.20;1.00;;;;;;4930419;29;20617;-59
2021/11/22 06:31:31;;;;;;;24.40;15.40;;;4.20;1.00;;;;;;4934692;29;20238;-61
2021/11/22 06:33:58;;;;;;;21.63;14.93;;;4.20;1.00;;;;;;4934435;29;20215;-61
2021/11/22 06:36:25;;;;;;;16.70;11.23;;;4.10;1.00;;;;;;4934067;29;20207;-60
2021/11/22 06:38:53;;;;;;;18.97;13.00;;;4.00;1.00;;;;;;4933892;29;20673;-60
2021/11/22 06:41:19;;;;;;;24.37;15.57;;;4.00;1.00;;;;;;4934647;29;20206;-60
2021/11/22 06:43:46;;;;;;;22.50;15.17;;;3.90;1.00;;;;;;4934407;29;20696;-60
2021/11/22 06:46:13;;;;;;;26.67;17.80;;;3.90;1.00;;;;;;4934441;29;20216;-59
2021/11/22 06:48:40;;;;;;;14.20;8.27;;;3.90;1.00;;;;;;4934599;29;20221;-61
2021/11/22 06:51:06;;;;;;;24.97;16.33;;;3.90;1.00;;;;;;4934348;29;20227;-60
2021/11/22 06:53:33;;;;;;;29.63;18.83;;;3.80;1.00;;;;;;4934205;29;20258;-61
2021/11/22 06:56:01;;;;;;;25.03;15.27;;;3.90;1.00;;;;;;4934236;29;20239;-58
2021/11/22 06:58:28;;;;;;;25.03;16.50;;;3.80;1.00;;;;;;4944077;29;20215;-60
2021/11/22 07:00:55;;;;;;;25.10;15.73;;;3.80;1.00;;;;;;4953595;29;20218;-62
2021/11/22 07:03:23;;;;;;;31.87;18.77;;;3.80;1.00;;;;;;4953467;29;20558;-64
2021/11/22 07:05:49;;;;;;;24.80;15.10;;;3.80;1.00;;;;;;4953124;28;20224;-61
2021/11/22 07:08:16;;;;;;;25.10;14.10;;;3.70;1.00;;;;;;4953050;28;20221;-60
2021/11/22 07:10:43;;;;;;;31.30;19.60;;;3.70;1.00;;;;;;4956506;29;20766;-60
2021/11/22 07:13:11;;;;;;;30.47;17.90;;;3.70;1.00;;;;;;4957355;29;20220;-67
2021/11/22 07:15:38;;;;;;;30.93;17.77;;;3.70;1.00;;;;;;4957443;28;20237;-65
2021/11/22 07:18:05;;;;;;;27.33;13.83;;;3.80;1.40;;;;;;4957353;29;20210;-66
2021/11/22 07:20:34;;;;;;;24.27;12.97;;;3.80;1.00;;;;;;4957571;29;20212;-67
2021/11/22 07:23:21;;;;;;;27.83;16.37;;;3.90;1.00;;;;;;4957556;29;20685;-66
2021/11/22 07:25:48;;;;;;;19.17;11.97;;;3.80;1.00;;;;;;5002910;23;20248;-66
2021/11/22 07:28:17;;;;;;;24.33;15.37;;;3.80;1.00;;;;;;4976189;28;20675;-65
2021/11/22 07:30:44;;;;;;;24.13;14.23;;;4.00;1.00;;;;;;4976283;28;20229;-67
2021/11/22 07:33:11;;;;;;;28.60;16.27;;;4.10;1.00;;;;;;4976022;28;20214;-64
2021/11/22 07:35:38;;;;;;;26.13;15.60;;;4.20;1.00;;;;;;4975956;28;20896;-63
2021/11/22 07:38:06;;;;;;;24.73;14.67;;;4.10;1.00;;;;;;4976140;28;20237;-65
2021/11/22 07:40:33;;;;;;;22.60;15.47;;;4.00;1.00;;;;;;4976201;28;20206;-66
2021/11/22 07:42:59;;;;;;;24.63;15.57;;;4.00;1.00;;;;;;4976345;28;20245;-64
2021/11/22 07:45:27;;;;;;;17.40;10.80;;;4.00;1.00;;;;;;4975691;28;20872;-63
2021/11/22 07:47:54;;;;;;;16.40;10.90;;;4.00;1.00;;;;;;4975786;28;20929;-66
2021/11/22 07:50:23;;;;;;;14.27;9.47;;;3.90;1.00;;;;;;4975816;28;20609;-65
2021/11/22 07:52:51;;;;;;;21.33;14.50;;;3.90;1.00;;;;;;4976288;28;20209;-63
2021/11/22 07:55:20;;;;;;;25.63;14.00;;;3.90;1.00;;;;;;4975531;28;20716;-63
2021/11/22 07:57:47;;;;;;;19.13;12.10;;;3.90;1.00;;;;;;4975804;28;20206;-63
2021/11/22 08:00:15;;;;;;;21.70;12.93;;;3.90;1.00;;;;;;4975889;28;20209;-63
2021/11/22 08:02:44;;;;;;;24.93;15.90;;;3.90;1.00;;;;;;4976017;28;20219;-62
2021/11/22 08:05:11;;;;;;;18.70;12.70;;;3.90;1.00;;;;;;4975521;28;20315;-61
2021/11/22 08:07:40;;;;;;;23.80;16.00;;;3.90;1.00;;;;;;4975376;28;20214;-62
2021/11/22 08:10:23;;;;;;;22.13;16.40;;;3.90;1.00;;;;;;4975694;28;20750;-63
2021/11/22 08:12:50;;;;;;;19.93;14.00;;;3.90;1.00;;;;;;4975348;28;20723;-64
2021/11/22 08:15:17;;;;;;;26.83;17.47;;;3.90;1.00;;;;;;4975424;28;20602;-64
2021/11/22 08:17:45;;;;;;;23.10;14.50;;;3.90;1.00;;;;;;4975441;28;20208;-62
2021/11/22 08:20:13;;;;;;;23.20;16.03;;;3.90;1.00;;;;;;4975086;28;20221;-60
2021/11/22 08:22:40;;;;;;;24.50;16.43;;;3.80;1.00;;;;;;4975602;28;20207;-61
2021/11/22 08:25:10;;;;;;;23.17;14.80;;;3.90;1.00;;;;;;4974895;28;20734;-61
2021/11/22 08:27:37;;;;;;;24.80;17.00;;;3.90;1.00;;;;;;4975349;28;20587;-61
2021/11/22 08:30:07;;;;;;;24.53;16.73;;;3.90;1.00;;;;;;4975387;28;20212;-61
2021/11/22 08:32:34;;;;;;;24.93;17.13;;;3.90;1.00;;;;;;4975557;28;20214;-61
2021/11/22 08:35:02;;;;;;;23.63;16.07;;;3.90;1.00;;;;;;4974876;28;20744;-61
2021/11/22 08:37:29;;;;;;;24.03;15.30;;;3.90;1.00;;;;;;4974824;28;20703;-60
2021/11/22 08:39:56;;;;;;;21.13;13.03;;;3.80;1.00;;;;;;4975350;28;20213;-62
2021/11/22 08:42:23;;;;;;;18.57;11.93;;;3.90;1.00;;;;;;4975130;28;20205;-63
2021/11/22 08:44:51;;;;;;;20.97;13.90;;;3.90;1.00;;;;;;4974753;28;20233;-61
2021/11/22 08:47:17;;;;;;;14.60;9.87;;;3.80;1.00;;;;;;4974909;28;20213;-64
2021/11/22 08:49:44;;;;;;;13.27;8.23;;;3.90;1.00;;;;;;4975060;28;20225;-63
2021/11/22 08:52:13;;;;;;;19.33;14.03;;;3.80;1.00;;;;;;4974634;28;20237;-64
2021/11/22 08:54:40;;;;;;;19.43;13.30;;;3.80;1.00;;;;;;4974562;28;20252;-63
2021/11/22 08:57:08;;;;;;;18.83;13.00;;;3.80;1.00;;;;;;4975154;28;20210;-63
2021/11/22 08:59:35;;;;;;;21.20;15.17;;;3.90;1.00;;;;;;4975082;28;20233;-62
2021/11/22 09:02:02;;;;;;;22.47;15.50;;;3.90;1.00;;;;;;4974563;28;20691;-62
2021/11/22 09:04:29;;;;;;;23.50;17.17;;;3.90;1.00;;;;;;4974475;28;20232;-64
2021/11/22 09:06:56;;;;;;;25.70;15.73;;;4.00;1.00;;;;;;4972233;28;20248;-64
2021/11/22 09:09:24;;;;;;;18.53;12.03;;;3.90;1.00;;;;;;4974582;28;20234;-64
2021/11/22 09:11:51;;;;;;;25.23;15.60;;;4.00;1.00;;;;;;4973232;28;20234;-65
2021/11/22 09:14:18;;;;;;;25.27;16.20;;;4.00;1.00;;;;;;4974017;28;20238;-64
2021/11/22 09:16:44;;;;;;;17.37;10.80;;;4.10;1.00;;;;;;4973096;28;20214;-64
2021/11/22 09:19:12;;;;;;;13.70;6.70;;;4.10;1.00;;;;;;4974372;28;20209;-65
2021/11/22 09:21:39;;;;;;;20.77;13.73;;;4.00;1.00;;;;;;4973599;28;20240;-65
2021/11/22 09:24:06;;;;;;;19.87;13.77;;;4.10;1.00;;;;;;4974293;28;20262;-66
2021/11/22 09:26:34;;;;;;;14.60;9.20;;;4.20;1.00;;;;;;4971381;28;20244;-65
2021/11/22 09:29:04;;;;;;;22.50;14.37;;;4.10;1.00;;;;;;4973423;28;20250;-64
2021/11/22 09:31:31;;;;;;;20.60;13.63;;;4.10;1.00;;;;;;4973576;28;20231;-65
2021/11/22 09:33:58;;;;;;;18.30;12.40;;;4.10;1.00;;;;;;4973438;28;20677;-65
2021/11/22 09:36:26;;;;;;;19.53;13.17;;;4.10;1.00;;;;;;4973216;28;20221;-62
2021/11/22 09:38:53;;;;;;;17.20;11.13;;;4.10;1.00;;;;;;4973773;28;20209;-61
2021/11/22 09:41:20;;;;;;;22.73;14.70;;;4.20;1.00;;;;;;4974202;28;20224;-62
2021/11/22 09:43:49;;;;;;;18.37;12.77;;;4.20;1.00;;;;;;4973225;28;20210;-62
2021/11/22 09:46:16;;;;;;;10.40;6.73;;;4.30;1.00;;;;;;4973451;28;20209;-62
2021/11/22 09:48:43;;;;;;;17.87;11.80;;;4.20;1.00;;;;;;4972783;28;20220;-54
2021/11/22 09:51:11;;;;;;;22.50;12.73;;;4.20;1.00;;;;;;4973895;28;20227;-64
2021/11/22 09:53:42;;;;;;;15.77;10.50;;;4.20;1.00;;;;;;4973645;28;20213;-63
2021/11/22 09:56:09;;;;;;;13.00;9.23;;;4.20;1.00;;;;;;4973332;28;20227;-63
2021/11/22 09:58:36;;;;;;;22.63;14.13;;;4.20;1.00;;;;;;4973476;28;20209;-64
2021/11/22 10:01:10;;;;;;;18.27;11.87;;;4.30;1.00;;;;;;4973383;28;20207;-63
2021/11/22 10:03:37;;;;;;;17.67;12.93;;;4.30;1.00;;;;;;4973456;28;20682;-62
2021/11/22 10:06:04;;;;;;;19.93;14.20;;;4.30;1.00;;;;;;4973245;28;20236;-63
2021/11/22 10:08:38;;;;;;;18.27;11.80;;;4.30;1.00;;;;;;4973256;28;20215;-63
2021/11/22 10:11:09;;;;;;;20.17;13.50;;;4.30;1.00;;;;;;4973428;28;20603;-63
2021/11/22 10:13:38;;;;;;;21.67;14.43;;;4.40;1.00;;;;;;4973408;28;20217;-63
2021/11/22 10:18:59;;;;;;;15.23;10.80;;;4.60;1.00;;;;;;5088730;28;20926;-61
2021/11/22 10:21:28;;;;;;;19.07;13.83;;;4.70;1.00;;;;;;5089322;28;20237;-61
2021/11/22 10:24:01;;;;;;;15.67;11.93;;;4.60;1.00;;;;;;5088792;28;20295;-61
2021/11/22 10:26:37;;;;;;;19.37;11.47;;;4.60;1.00;;;;;;5088366;28;20209;-64
2021/11/22 10:29:04;;;;;;;17.60;11.77;;;4.70;1.00;;;;;;5088916;28;20210;-63
2021/11/22 10:31:33;;;;;;;18.50;13.67;;;4.80;1.00;;;;;;5089156;28;20303;-63
2021/11/22 10:34:02;;;;;;;16.43;11.97;;;5.00;1.00;;;;;;5088763;28;20230;-63
2021/11/22 10:36:29;;;;;;;20.50;12.70;;;5.10;1.00;;;;;;5088137;28;20298;-63
2021/11/22 10:39:00;;;;;;;18.50;12.10;;;5.30;1.00;;;;;;5088390;28;20226;-64
2021/11/22 10:41:30;;;;;;;16.10;12.70;;;5.30;1.00;;;;;;5089502;28;20690;-62
2021/11/22 10:44:03;;;;;;;15.87;12.23;;;5.30;1.00;;;;;;5089365;28;20227;-61
2021/11/22 10:46:34;;;;;;;14.97;11.00;;;5.60;1.00;;;;;;5088875;28;20212;-61
2021/11/22 10:49:12;;;;;;;14.73;10.40;;;5.70;1.00;;;;;;5089042;28;20268;-63
2021/11/22 10:51:43;;;;;;;15.83;11.63;;;5.70;1.00;;;;;;5089279;28;20664;-63
2021/11/22 10:54:13;;;;;;;14.87;10.27;;;5.50;1.00;;;;;;5088319;28;20229;-65
2021/11/22 10:56:42;;;;;;;18.33;11.97;;;5.40;1.00;;;;;;5088218;28;20205;-64
2021/11/22 10:59:12;;;;;;;17.07;12.30;;;5.40;1.00;;;;;;5088051;28;20212;-64
2021/11/22 11:01:44;;;;;;;17.30;11.50;;;5.50;1.00;;;;;;5088749;28;20242;-63
2021/11/22 11:04:18;;;;;;;12.50;9.30;;;5.50;1.00;;;;;;5088525;28;20716;-60
2021/11/22 11:06:59;;;;;;;17.17;10.83;;;5.50;1.00;;;;;;5086548;28;20587;-63
2021/11/22 11:09:30;;;;;;;13.97;9.40;;;5.50;1.00;;;;;;5088015;28;20581;-63
2021/11/22 11:12:03;;;;;;;14.80;10.63;;;5.40;1.00;;;;;;5087880;28;20212;-58
2021/11/22 11:14:30;;;;;;;10.83;7.63;;;5.30;1.00;;;;;;5085733;28;20260;-59
2021/11/22 11:17:10;;;;;;;14.50;9.43;;;5.20;1.00;;;;;;5087513;28;20224;-64
2021/11/22 11:19:38;;;;;;;15.63;8.57;;;5.30;1.00;;;;;;5087911;28;20207;-63
2021/11/22 11:22:05;;;;;;;12.70;8.80;;;5.40;1.00;;;;;;5087824;28;20263;-61
2021/11/22 11:24:33;;;;;;;12.47;9.23;;;5.40;1.00;;;;;;5086430;28;20751;-61
2021/11/22 11:27:00;;;;;;;12.10;8.60;;;5.50;1.00;;;;;;5087752;28;20214;-60
2021/11/22 11:29:27;;;;;;;6.60;4.80;;;5.70;1.00;;;;;;5079175;28;20208;-64
2021/11/22 11:31:55;;;;;;;12.47;6.47;;;5.60;1.00;;;;;;5073248;28;20552;-64
2021/11/22 11:34:27;;;;;;;9.27;7.07;;;5.70;1.00;;;;;;5073893;28;20225;-63
2021/11/22 11:37:20;;;;;;;8.00;6.20;;;5.40;1.00;;;;;;5073479;28;20754;-64
2021/11/22 11:40:22;;;;;;;11.33;6.17;;;5.40;1.00;;;;;;5073692;28;20209;-63
2021/11/22 11:43:11;;;;;;;9.20;6.17;;;5.50;1.00;;;;;;5071836;28;20205;-63
2021/11/22 11:45:43;;;;;;;7.30;4.00;;;5.70;1.00;;;;;;5073588;28;20851;-63
2021/11/22 11:48:20;;;;;;;6.90;4.77;;;5.80;1.00;;;;;;5073721;28;20282;-59
2021/11/22 11:50:47;;;;;;;7.07;5.20;;;5.60;1.00;;;;;;5073961;28;20218;-60
2021/11/22 11:53:17;;;;;;;6.83;4.70;;;5.70;1.00;;;;;;5073714;28;20254;-61
2021/11/22 11:56:05;;;;;;;4.87;3.67;;;5.80;1.00;;;;;;5073296;28;20232;-59
2021/11/22 11:58:31;;;;;;;4.47;4.03;;;5.80;1.00;;;;;;5073289;28;20787;-58
2021/11/22 12:01:00;;;;;;;5.90;4.27;;;5.80;99.90;;;;;;5073998;28;20219;-62
2021/11/22 12:03:30;;;;;;;6.27;4.07;;;5.80;99.90;;;;;;5073472;28;20236;-60
2021/11/22 12:05:59;;;;;;;3.63;3.10;;;5.90;99.90;;;;;;5073127;28;20231;-61
2021/11/22 12:08:30;;;;;;;8.03;4.10;;;5.80;99.90;;;;;;5073154;28;20273;-61
2021/11/22 12:11:00;;;;;;;5.40;4.17;;;5.70;99.90;;;;;;5073686;28;20204;-60
2021/11/22 12:13:46;;;;;;;4.57;3.73;;;5.80;99.90;;;;;;5073661;28;20244;-62
2021/11/22 12:16:40;;;;;;;11.50;6.83;;;5.90;99.90;;;;;;5072984;28;20782;-59
2021/11/22 12:19:36;;;;;;;6.57;3.90;;;5.90;99.90;;;;;;5073033;28;20709;-56
2021/11/22 12:22:11;;;;;;;3.70;2.70;;;5.90;99.90;;;;;;5073308;28;20213;-60
2021/11/22 12:24:41;;;;;;;6.40;3.60;;;5.90;99.90;;;;;;5072879;28;20651;-59
2021/11/22 12:27:35;;;;;;;4.43;2.93;;;6.00;99.90;;;;;;5073006;28;20209;-59
2021/11/22 12:30:26;;;;;;;3.13;2.43;;;6.00;99.90;;;;;;5073719;28;20582;-58
2021/11/22 12:32:53;;;;;;;6.40;3.23;;;6.00;99.90;;;;;;5073364;28;20224;-57
2021/11/22 12:35:35;;;;;;;4.17;3.20;;;6.00;99.90;;;;;;5072647;28;20225;-59
2021/11/22 12:38:20;;;;;;;5.40;3.30;;;6.00;99.90;;;;;;5072725;28;20231;-58
2021/11/22 12:40:51;;;;;;;4.87;3.10;;;6.10;99.90;;;;;;5072428;28;20209;-58
2021/11/22 12:43:37;;;;;;;3.90;3.27;;;6.20;99.90;;;;;;5073225;28;20200;-58
2021/11/22 12:46:05;;;;;;;2.90;2.33;;;6.30;99.90;;;;;;5072837;28;20228;-60
2021/11/22 12:48:33;;;;;;;2.70;1.67;;;6.30;99.90;;;;;;5072466;28;20208;-59
2021/11/22 12:51:02;;;;;;;4.23;3.27;;;6.20;99.90;;;;;;5072966;28;20212;-60
2021/11/22 12:53:29;;;;;;;4.33;3.17;;;6.20;99.90;;;;;;5072610;28;20600;-59
2021/11/22 12:55:58;;;;;;;2.87;2.60;;;6.20;99.90;;;;;;5071761;28;20231;-59
2021/11/22 12:58:28;;;;;;;4.93;3.70;;;6.20;99.90;;;;;;5072410;28;20225;-63
2021/11/22 13:00:55;;;;;;;6.30;4.27;;;6.10;99.90;;;;;;5071982;28;20208;-61